SANU/UAQ METAR and TAF weather

Enter ICAO airport designator
Station Type Date Time Source
SANU METAR 2021/04/10 11:20 UTC NOAA

SANU 101120Z 16005KT 1000 DZ OVC010 10/10 Q1016


Station Type Date Time Source
SANU Decoded METAR 2021/04/10 11:20 UTC NOAA

San Juan Aerodrome, Argentina (SANU) 31-34S 068-52W 598M
Apr 10, 2021 - 07:20 AM EDT / 2021.04.10 1120 UTC
Wind: from the SSE (160 degrees) at 6 MPH (5 KT):0
Visibility: less than 1 mile:0
Sky conditions: overcast
Weather: drizzle
Temperature: 50 F (10 C)
Dew Point: 50 F (10 C)
Relative Humidity: 100%
Pressure (altimeter): 30.00 in. Hg (1016 hPa)
ob: SANU 101120Z 16005KT 1000 DZ OVC010 10/10 Q1016
cycle: 11

Station Type Date Time Source
SANU TAF 2021/02/16 18:09 UTC NOAA

TAF TAF SANU 161100Z 1618/1718 16005KT 9999 FEW040 TX31/1621Z TN19/1710Z
BECMG 1620/1622 18010KT 9999 FEW040CB
BECMG 1701/1703 16005KT 9999 FEW040

Example: see airport list